Time;durP1;ratioP1;P1;durP2;ratioP2;P2;SDS_P1;SDS_P2;PMS_P1;PMS_P2;Temp;Humidity;BMP_temperature;BMP_pressure;BME280_temperature;BME280_humidity;BME280_pressure;Samples;Min_cycle;Max_cycle;Signal;HPM_P1;HPM_P2
2023/07/23 00:00:31;;;;;;;4.10;3.40;;;;;;;19.62;58.12;156405.66;4910151;29;20796;-80
2023/07/23 00:03:16;;;;;;;3.50;3.13;;;;;;;19.60;58.25;156401.72;4920229;29;20477;-80
2023/07/23 00:06:01;;;;;;;3.37;3.07;;;;;;;19.58;58.39;156396.50;4905182;29;20472;-80
2023/07/23 00:08:48;;;;;;;4.80;3.50;;;;;;;19.56;58.32;156390.00;4910963;29;20553;-81
2023/07/23 00:11:33;;;;;;;3.93;3.53;;;;;;;19.56;58.30;156390.00;4906521;29;20962;-81
2023/07/23 00:14:19;;;;;;;4.10;3.53;;;;;;;19.56;58.12;156391.31;4909594;29;20882;-81
2023/07/23 00:17:06;;;;;;;4.73;3.20;;;;;;;19.51;58.52;156378.28;4907193;29;20504;-81
2023/07/23 00:19:51;;;;;;;3.73;3.30;;;;;;;19.49;58.24;156371.72;4906532;29;20463;-80
2023/07/23 00:22:36;;;;;;;3.47;2.90;;;;;;;19.49;59.03;156373.03;4921309;29;20468;-81
2023/07/23 00:25:23;;;;;;;3.83;3.50;;;;;;;19.47;58.50;156366.50;4909077;29;20807;-80
2023/07/23 00:28:08;;;;;;;3.67;3.37;;;;;;;19.47;58.34;156367.81;4913914;29;20460;-80
2023/07/23 00:30:54;;;;;;;3.80;3.10;;;;;;;19.40;58.42;156350.91;4911429;29;20554;-80
2023/07/23 00:33:39;;;;;;;4.00;3.07;;;;;;;19.34;58.66;156335.19;4923243;29;20422;-81
2023/07/23 00:36:25;;;;;;;3.90;3.30;;;;;;;19.33;59.02;156332.56;4916658;29;20536;-81
2023/07/23 00:39:10;;;;;;;3.53;3.23;;;;;;;19.29;59.17;156322.16;4910024;29;20445;-81
2023/07/23 00:41:57;;;;;;;3.80;3.30;;;;;;;19.28;59.48;156318.22;4911138;29;20792;-80
2023/07/23 00:44:43;;;;;;;4.30;3.90;;;;;;;19.26;59.49;156314.34;4915965;29;20517;-80
2023/07/23 00:47:28;;;;;;;3.80;3.10;;;;;;;19.24;59.53;156307.84;4900260;29;20490;-81
2023/07/23 00:50:14;;;;;;;3.47;3.17;;;;;;;19.24;59.31;156307.84;4905717;29;20460;-80
2023/07/23 00:53:00;;;;;;;3.67;2.83;;;;;;;19.21;59.32;156301.31;4922402;29;20520;-81
2023/07/23 00:55:45;;;;;;;3.67;3.37;;;;;;;19.17;59.10;156289.53;4907109;29;20512;-80
2023/07/23 00:58:32;;;;;;;5.20;3.00;;;;;;;19.15;59.64;156284.34;4908383;29;21122;-80
2023/07/23 01:01:18;;;;;;;4.30;2.63;;;;;;;19.10;59.61;156271.31;4908547;29;21004;-80
2023/07/23 01:04:04;;;;;;;3.50;3.20;;;;;;;19.06;59.79;156262.19;4898865;29;20593;-80
2023/07/23 01:06:49;;;;;;;3.50;3.20;;;;;;;19.03;59.63;156254.41;4921936;29;23078;-80
2023/07/23 01:09:36;;;;;;;3.20;2.90;;;;;;;19.01;59.85;156249.16;4912906;29;21043;-80
2023/07/23 01:12:22;;;;;;;3.40;3.00;;;;;;;18.98;59.84;156240.06;4909229;29;20445;-80
2023/07/23 01:15:10;;;;;;;3.37;3.07;;;;;;;18.94;59.87;156230.94;4925530;29;20433;-80
2023/07/23 01:17:55;;;;;;;3.00;2.50;;;;;;;18.91;59.76;156223.09;4912539;29;20468;-80
2023/07/23 01:20:40;;;;;;;3.00;2.70;;;;;;;18.85;60.04;156207.47;4909434;29;20452;-80
2023/07/23 01:23:27;;;;;;;3.00;2.60;;;;;;;18.82;60.02;156199.69;4912950;29;20564;-80
2023/07/23 01:26:13;;;;;;;3.50;3.20;;;;;;;18.80;59.96;156194.44;4913539;29;21050;-80
2023/07/23 01:28:58;;;;;;;4.70;3.20;;;;;;;18.76;60.35;156184.03;4908303;29;20484;-80
2023/07/23 01:31:43;;;;;;;3.10;2.77;;;;;;;18.73;60.57;156177.53;4913388;29;20757;-80
2023/07/23 01:34:28;;;;;;;3.90;2.90;;;;;;;18.69;60.46;156165.81;4910625;29;20484;-80
2023/07/23 01:37:14;;;;;;;3.50;3.20;;;;;;;18.64;60.67;156154.06;4900579;29;20961;-80
2023/07/23 01:40:01;;;;;;;3.90;3.13;;;;;;;18.59;60.73;156141.03;4935637;29;20447;-80
2023/07/23 01:42:47;;;;;;;3.53;3.00;;;;;;;18.58;60.67;156137.13;4916476;29;20496;-80
2023/07/23 01:45:32;;;;;;;3.70;2.90;;;;;;;18.55;61.10;156129.31;4912376;29;20525;-80
2023/07/23 01:48:17;;;;;;;3.77;2.90;;;;;;;18.49;61.22;156113.66;4916919;29;21017;-81
2023/07/23 01:51:03;;;;;;;3.53;3.23;;;;;;;18.45;61.42;156104.53;4894122;29;20539;-80
2023/07/23 01:53:48;;;;;;;4.50;3.47;;;;;;;18.38;61.52;156084.97;4907430;29;20464;-81
2023/07/23 01:56:34;;;;;;;3.37;3.07;;;;;;;18.35;61.79;156078.44;4909794;29;20452;-80
2023/07/23 01:59:20;;;;;;;3.10;2.53;;;;;;;18.35;61.53;156077.19;4912245;29;20445;-80
2023/07/23 02:02:09;;;;;;;11.80;2.93;;;;;;;18.36;61.66;156081.06;4923079;29;20452;-80
2023/07/23 02:04:54;;;;;;;3.90;3.17;;;;;;;18.37;61.58;156083.69;4920734;29;20465;-80
2023/07/23 02:07:39;;;;;;;4.27;2.40;;;;;;;18.37;61.85;156083.69;4910217;29;20468;-80
2023/07/23 02:10:24;;;;;;;3.70;3.10;;;;;;;18.35;61.63;156078.44;4914346;29;20468;-80
2023/07/23 02:13:11;;;;;;;2.77;2.47;;;;;;;18.30;61.48;156065.44;4909459;29;20448;-80
2023/07/23 02:15:56;;;;;;;3.23;2.87;;;;;;;18.27;61.49;156057.59;4913214;29;20456;-80
2023/07/23 02:18:41;;;;;;;3.73;2.87;;;;;;;18.27;61.90;156056.34;4908912;29;21020;-80
2023/07/23 02:21:27;;;;;;;3.20;2.90;;;;;;;18.29;61.60;156061.53;4905466;29;20456;-80
2023/07/23 02:24:12;;;;;;;3.00;2.70;;;;;;;18.29;61.59;156061.53;4911140;29;20469;-80
2023/07/23 02:26:58;;;;;;;3.87;3.00;;;;;;;18.29;61.51;156061.53;4925568;29;20549;-80
2023/07/23 02:29:44;;;;;;;4.60;2.90;;;;;;;18.26;61.74;156055.03;4908064;29;20464;-80
2023/07/23 02:32:30;;;;;;;3.00;2.67;;;;;;;18.21;62.04;156043.28;4905778;29;20517;-81
2023/07/23 02:35:15;;;;;;;3.80;3.20;;;;;;;18.16;62.02;156030.25;4912488;29;20589;-81
2023/07/23 02:38:00;;;;;;;3.10;2.80;;;;;;;18.11;62.42;156015.94;4905948;29;20470;-81
2023/07/23 02:40:45;;;;;;;4.07;3.20;;;;;;;18.05;62.70;156001.66;4908389;29;20421;-81
2023/07/23 02:43:30;;;;;;;2.80;2.40;;;;;;;18.01;62.78;155991.22;4912893;29;20432;-81
2023/07/23 02:46:17;;;;;;;3.40;3.10;;;;;;;17.97;62.58;155979.50;4907762;29;20473;-81
2023/07/23 02:49:03;;;;;;;3.30;2.97;;;;;;;17.94;62.58;155971.69;4910096;29;20464;-81
2023/07/23 02:51:48;;;;;;;3.43;3.00;;;;;;;17.93;62.97;155969.06;4913190;29;20936;-81
2023/07/23 02:54:34;;;;;;;4.03;3.50;;;;;;;17.91;63.25;155965.16;4923613;29;20444;-81
2023/07/23 02:57:19;;;;;;;3.37;2.90;;;;;;;17.89;63.13;155958.66;4919029;29;20449;-81
2023/07/23 03:00:06;;;;;;;3.07;2.53;;;;;;;17.91;63.12;155965.16;4910832;29;21012;-81
2023/07/23 03:02:53;;;;;;;3.80;2.90;;;;;;;17.91;63.17;155965.16;4916928;29;20440;-80
2023/07/23 03:05:42;;;;;;;2.97;2.67;;;;;;;17.89;63.13;155959.97;4916237;29;20566;-80
2023/07/23 03:08:28;;;;;;;3.23;2.53;;;;;;;17.87;63.02;155954.72;4912076;29;20947;-81
2023/07/23 03:11:13;;;;;;;3.70;3.13;;;;;;;17.88;63.17;155957.34;4922292;29;20520;-81
2023/07/23 03:13:58;;;;;;;5.40;2.67;;;;;;;17.87;63.18;155954.72;4910157;29;20436;-81
2023/07/23 03:16:44;;;;;;;3.70;3.10;;;;;;;17.88;62.98;155957.34;4911194;29;20445;-80
2023/07/23 03:19:30;;;;;;;4.20;2.70;;;;;;;17.89;63.22;155958.66;4911993;29;20464;-80
2023/07/23 03:22:15;;;;;;;3.33;3.03;;;;;;;17.88;63.39;155957.34;4912289;29;20789;-81
2023/07/23 03:25:01;;;;;;;3.50;2.63;;;;;;;17.87;63.42;155953.47;4914151;29;20980;-81
2023/07/23 03:27:46;;;;;;;3.47;2.40;;;;;;;17.87;63.47;155953.47;4896237;29;20548;-81
2023/07/23 03:30:31;;;;;;;2.67;2.33;;;;;;;17.85;63.28;155949.53;4891949;29;20414;-81
2023/07/23 03:33:16;;;;;;;3.10;2.67;;;;;;;17.81;63.18;155939.16;4900238;29;20556;-80
2023/07/23 03:36:04;;;;;;;3.27;2.40;;;;;;;17.83;63.31;155943.03;4910610;29;20444;-81
2023/07/23 03:38:50;;;;;;;3.40;3.00;;;;;;;17.83;63.43;155944.34;4910440;29;20449;-81
2023/07/23 03:41:35;;;;;;;3.03;2.20;;;;;;;17.81;63.50;155937.84;4907516;29;20960;-81
2023/07/23 03:44:20;;;;;;;3.23;2.93;;;;;;;17.79;63.74;155932.63;4917562;29;20494;-80
2023/07/23 03:47:11;;;;;;;3.33;2.87;;;;;;;17.76;63.67;155924.81;4916134;29;20520;-80
2023/07/23 03:49:56;;;;;;;3.90;2.83;;;;;;;17.77;63.72;155928.69;4911013;29;20864;-80
2023/07/23 03:52:43;;;;;;;2.77;2.43;;;;;;;17.77;63.53;155927.38;4907250;29;20456;-80
2023/07/23 03:55:28;;;;;;;2.60;2.20;;;;;;;17.80;63.92;155935.22;4905904;29;20515;-80
2023/07/23 03:58:17;;;;;;;3.60;2.87;;;;;;;17.81;63.62;155939.16;4916556;29;20456;-80
2023/07/23 04:01:02;;;;;;;3.57;2.50;;;;;;;17.80;63.83;155936.53;4904477;29;20448;-80
2023/07/23 04:03:47;;;;;;;3.07;2.77;;;;;;;17.82;63.75;155940.44;4921717;29;20452;-80
2023/07/23 04:06:33;;;;;;;3.50;2.67;;;;;;;17.83;63.96;155943.03;4907087;29;20996;-80
2023/07/23 04:09:20;;;;;;;2.60;2.27;;;;;;;17.83;64.00;155944.34;4907987;29;20464;-80
2023/07/23 04:12:06;;;;;;;3.80;2.63;;;;;;;17.87;64.37;155954.72;4908465;29;20542;-79
2023/07/23 04:14:51;;;;;;;2.57;2.30;;;;;;;17.90;64.31;155961.25;4913856;29;20495;-80
2023/07/23 04:17:37;;;;;;;3.40;2.80;;;;;;;17.92;64.27;155967.78;4921682;29;20549;-80
2023/07/23 04:20:22;;;;;;;3.80;3.10;;;;;;;17.96;64.42;155976.88;4910737;29;20976;-80
2023/07/23 04:23:07;;;;;;;5.10;2.57;;;;;;;17.99;64.12;155986.00;4912554;29;20445;-80
2023/07/23 04:25:54;;;;;;;3.93;3.30;;;;;;;18.03;64.02;155995.16;4908545;29;20459;-80
2023/07/23 04:28:39;;;;;;;3.20;2.90;;;;;;;18.05;64.16;156001.66;4919897;29;20488;-80
2023/07/23 04:31:24;;;;;;;3.10;2.67;;;;;;;18.09;64.14;156012.03;4919617;29;20462;-80
2023/07/23 04:34:09;;;;;;;3.40;2.53;;;;;;;18.18;63.99;156035.50;4924870;29;20456;-80
2023/07/23 04:36:55;;;;;;;3.07;2.77;;;;;;;18.27;63.49;156056.34;4911475;29;20605;-80
2023/07/23 04:39:41;;;;;;;3.00;2.57;;;;;;;18.43;63.51;156097.97;4913055;29;20932;-80
2023/07/23 04:42:27;;;;;;;2.80;2.50;;;;;;;18.57;63.12;156134.53;4914075;29;20433;-80
2023/07/23 04:45:13;;;;;;;3.57;2.80;;;;;;;18.64;62.71;156154.06;4910933;29;23212;-80
2023/07/23 04:47:59;;;;;;;2.90;2.60;;;;;;;18.81;62.46;156197.06;4917065;29;20583;-80
2023/07/23 04:50:44;;;;;;;3.53;2.63;;;;;;;19.03;62.04;156253.09;4927046;29;20445;-81
2023/07/23 04:53:30;;;;;;;3.23;2.93;;;;;;;19.23;61.41;156306.53;4911718;29;21011;-81
2023/07/23 04:56:15;;;;;;;3.90;3.17;;;;;;;19.41;60.85;156352.16;4912923;29;20452;-80
2023/07/23 04:59:02;;;;;;;2.90;2.50;;;;;;;19.57;60.46;156392.56;4913884;29;20917;-80
2023/07/23 05:01:47;;;;;;;3.63;2.70;;;;;;;19.67;59.95;156418.69;4911896;29;20527;-80
2023/07/23 05:04:33;;;;;;;4.20;3.40;;;;;;;19.81;59.69;156455.16;4908749;29;20936;-81
2023/07/23 05:07:21;;;;;;;2.93;2.60;;;;;;;19.99;59.03;156502.09;4906723;29;20951;-80
2023/07/23 05:10:07;;;;;;;3.23;2.93;;;;;;;20.22;58.75;156560.81;4906250;29;20464;-81
2023/07/23 05:12:54;;;;;;;2.90;2.60;;;;;;;20.35;58.18;156596.06;4909544;29;21031;-81
2023/07/23 05:15:41;;;;;;;2.80;2.60;;;;;;;20.29;58.02;156580.41;4912058;29;20476;-80
2023/07/23 05:18:26;;;;;;;3.37;2.70;;;;;;;20.20;58.13;156556.84;4910010;29;20602;-80
2023/07/23 05:21:15;;;;;;;3.20;2.90;;;;;;;20.15;58.92;156543.81;4911520;29;20452;-80
2023/07/23 05:24:00;;;;;;;2.80;2.40;;;;;;;20.23;58.89;156563.38;4911862;29;20448;-81
2023/07/23 05:26:45;;;;;;;3.50;2.93;;;;;;;20.35;58.77;156596.06;4912268;29;20544;-80
2023/07/23 05:29:33;;;;;;;3.33;2.60;;;;;;;20.55;57.98;156648.22;4911711;29;20794;-79
2023/07/23 05:32:20;;;;;;;4.57;3.07;;;;;;;20.82;57.69;156716.06;4923556;29;21012;-80
2023/07/23 05:35:06;;;;;;;3.00;2.70;;;;;;;21.13;57.11;156797.00;4912476;29;20972;-80
2023/07/23 05:37:51;;;;;;;3.00;2.70;;;;;;;21.44;56.11;156877.97;4908538;29;20448;-80
2023/07/23 05:40:37;;;;;;;3.10;2.70;;;;;;;21.62;55.81;156923.63;4911366;29;20468;-82
2023/07/23 05:43:22;;;;;;;2.97;2.67;;;;;;;21.85;55.25;156985.00;4912188;29;20493;-81
2023/07/23 05:46:08;;;;;;;3.23;2.60;;;;;;;22.11;54.57;157051.63;4912008;29;20464;-81
2023/07/23 05:48:54;;;;;;;3.13;2.60;;;;;;;22.32;53.46;157106.47;4904243;29;20479;-82
2023/07/23 05:51:40;;;;;;;3.00;2.67;;;;;;;22.51;53.06;157154.81;4911036;29;20457;-81
2023/07/23 05:54:25;;;;;;;2.70;2.40;;;;;;;22.65;52.60;157190.13;4909822;29;20449;-81
2023/07/23 05:57:11;;;;;;;4.77;3.10;;;;;;;22.89;52.29;157254.16;4911120;29;20452;-81
2023/07/23 05:59:56;;;;;;;5.40;2.83;;;;;;;23.10;52.09;157307.72;4909230;29;20581;-82
2023/07/23 06:02:41;;;;;;;2.90;2.47;;;;;;;23.28;51.61;157353.47;4913910;29;20477;-81
2023/07/23 06:05:28;;;;;;;3.37;2.97;;;;;;;23.35;51.99;157371.78;4910364;29;20813;-83
2023/07/23 06:08:14;;;;;;;3.20;2.80;;;;;;;23.58;51.39;157431.97;4911245;29;20605;-81
2023/07/23 06:10:59;;;;;;;3.30;3.00;;;;;;;23.75;51.25;157475.13;4910907;29;20560;-81
2023/07/23 06:13:44;;;;;;;3.07;2.50;;;;;;;23.92;50.86;157519.53;4912672;29;20589;-80
2023/07/23 06:16:32;;;;;;;3.50;2.90;;;;;;;24.13;50.31;157574.50;4910080;29;20818;-80
2023/07/23 06:19:17;;;;;;;3.33;2.30;;;;;;;24.46;49.07;157659.53;4911547;29;20456;-80
2023/07/23 06:22:04;;;;;;;2.60;2.20;;;;;;;24.54;48.30;157681.72;4913461;29;20983;-80
2023/07/23 06:24:50;;;;;;;4.90;2.70;;;;;;;24.47;48.06;157662.13;4925645;29;20500;-81
2023/07/23 06:27:35;;;;;;;3.00;2.53;;;;;;;24.33;49.24;157625.53;4913628;29;20463;-80
2023/07/23 06:30:20;;;;;;;3.37;3.00;;;;;;;24.16;48.61;157583.69;4929394;29;20448;-80
2023/07/23 06:33:06;;;;;;;3.20;2.40;;;;;;;24.15;49.02;157581.03;4913088;29;20909;-80
2023/07/23 06:35:51;;;;;;;3.50;2.80;;;;;;;24.16;49.71;157582.34;4912091;29;20456;-81
2023/07/23 06:38:38;;;;;;;3.00;2.70;;;;;;;24.06;48.90;157557.47;4912111;29;20464;-80
2023/07/23 06:41:23;;;;;;;3.37;2.47;;;;;;;23.95;49.73;157528.69;4911463;29;20461;-81
2023/07/23 06:44:21;;;;;;;3.57;2.73;;;;;;;23.86;49.24;157505.16;4910156;29;20456;-80
2023/07/23 06:47:06;;;;;;;2.77;2.33;;;;;;;23.85;49.42;157502.56;4921564;29;21012;-81
2023/07/23 06:49:52;;;;;;;3.60;2.63;;;;;;;23.87;50.18;157507.78;4911663;29;20968;-81
2023/07/23 06:52:37;;;;;;;2.90;2.60;;;;;;;23.92;51.08;157520.84;4907773;29;20809;-81
2023/07/23 06:55:24;;;;;;;2.93;2.50;;;;;;;24.06;49.28;157556.16;4908493;29;20853;-81
2023/07/23 06:58:11;;;;;;;3.13;2.40;;;;;;;24.21;49.28;157596.75;4910705;29;20465;-81
2023/07/23 07:00:57;;;;;;;4.23;2.87;;;;;;;24.44;49.01;157654.25;4904982;29;20580;-81
2023/07/23 07:03:43;;;;;;;2.93;2.30;;;;;;;24.58;48.18;157690.91;4907620;29;20838;-81
2023/07/23 07:06:28;;;;;;;2.93;2.63;;;;;;;24.73;47.19;157730.13;4910391;29;20460;-82
2023/07/23 07:09:15;;;;;;;3.00;2.70;;;;;;;24.94;48.37;157785.13;4905608;29;21041;-82
2023/07/23 07:12:02;;;;;;;3.03;2.73;;;;;;;25.05;48.10;157813.91;4906422;29;20459;-81
2023/07/23 07:14:47;;;;;;;4.50;3.07;;;;;;;25.19;47.83;157849.25;4910956;29;20453;-82
2023/07/23 07:17:33;;;;;;;3.30;2.60;;;;;;;25.34;47.25;157889.81;4910403;29;20960;-82
2023/07/23 07:20:18;;;;;;;3.10;2.70;;;;;;;25.70;46.79;157982.81;4905432;29;20445;-82
2023/07/23 07:23:03;;;;;;;3.40;3.10;;;;;;;26.13;45.31;158094.16;4908954;29;20452;-82
2023/07/23 07:25:48;;;;;;;3.70;2.70;;;;;;;26.29;45.54;158136.03;4910676;29;20504;-82
2023/07/23 07:28:35;;;;;;;2.23;2.03;;;;;;;26.46;44.79;158180.56;4908005;29;20836;-82
2023/07/23 07:31:20;;;;;;;2.90;2.60;;;;;;;26.69;44.36;158239.50;4910231;29;20472;-83
2023/07/23 07:34:06;;;;;;;3.20;2.50;;;;;;;27.00;41.90;158320.81;4922394;29;20468;-82
2023/07/23 07:37:02;;;;;;;3.20;2.20;;;;;;;27.25;42.39;158383.66;4920906;29;20524;-83
2023/07/23 07:39:47;;;;;;;3.27;2.60;;;;;;;27.36;41.48;158412.50;4908933;29;20457;-83
2023/07/23 07:42:32;;;;;;;2.70;2.40;;;;;;;27.39;41.43;158421.69;4910665;29;20585;-83
2023/07/23 07:45:19;;;;;;;2.80;2.50;;;;;;;27.56;40.74;158466.25;4922355;29;20461;-83
2023/07/23 07:48:05;;;;;;;4.80;2.57;;;;;;;27.71;40.69;158505.59;4907986;29;20523;-83
2023/07/23 07:50:57;;;;;;;2.80;2.60;;;;;;;27.79;40.77;158526.59;4910210;29;20476;-83
2023/07/23 07:53:43;;;;;;;3.93;2.70;;;;;;;27.87;40.49;158544.91;4917813;29;21323;-82
2023/07/23 07:56:29;;;;;;;2.60;2.40;;;;;;;27.89;40.59;158551.47;4907230;29;20463;-82
2023/07/23 07:59:15;;;;;;;3.83;2.50;;;;;;;27.98;40.98;158573.75;4919739;29;20546;-83
2023/07/23 08:02:02;;;;;;;3.10;2.40;;;;;;;28.00;40.93;158579.00;4910511;29;20857;-83
2023/07/23 08:04:48;;;;;;;2.70;2.50;;;;;;;27.90;41.20;158552.78;4903053;29;20825;-83
2023/07/23 08:07:34;;;;;;;3.07;2.53;;;;;;;28.00;40.46;158579.00;4909994;29;20444;-82
2023/07/23 08:10:19;;;;;;;2.83;2.53;;;;;;;28.11;40.99;158607.91;4908995;29;20456;-83
2023/07/23 08:13:05;;;;;;;2.63;2.43;;;;;;;28.25;41.19;158644.63;4912593;29;20453;-83
2023/07/23 08:15:50;;;;;;;3.63;2.57;;;;;;;28.35;40.57;158670.84;4912609;29;20467;-83
2023/07/23 08:18:37;;;;;;;5.40;2.90;;;;;;;28.35;40.12;158670.84;4908243;29;20908;-83
2023/07/23 08:21:23;;;;;;;2.63;2.30;;;;;;;28.35;40.06;158672.16;4909232;29;20464;-82
2023/07/23 08:24:09;;;;;;;2.90;2.50;;;;;;;28.24;40.23;158641.97;4908990;29;20572;-82
2023/07/23 08:26:56;;;;;;;6.27;2.30;;;;;;;28.15;40.33;158618.38;4907976;29;20901;-83
2023/07/23 08:29:45;;;;;;;3.53;2.83;;;;;;;28.06;40.22;158596.13;4910004;29;20472;-83
2023/07/23 08:32:31;;;;;;;3.20;2.90;;;;;;;28.04;40.72;158589.56;4909999;29;20448;-83
2023/07/23 08:35:18;;;;;;;3.70;3.00;;;;;;;28.04;40.74;158589.56;4923528;29;20536;-83
2023/07/23 08:38:04;;;;;;;2.70;2.10;;;;;;;28.12;40.80;158611.81;4909706;29;21240;-83
2023/07/23 08:40:57;;;;;;;3.13;2.83;;;;;;;28.31;42.15;158660.31;4904952;29;20608;-83
2023/07/23 08:44:15;;;;;;;2.60;2.40;;;;;;;28.32;41.13;158664.28;4908297;29;20523;-83
2023/07/23 08:47:10;;;;;;;2.40;2.20;;;;;;;28.51;40.74;158712.81;4906777;29;20531;-83
2023/07/23 08:49:55;;;;;;;3.20;2.47;;;;;;;28.55;40.67;158723.28;4907571;29;20836;-83
2023/07/23 08:52:43;;;;;;;2.40;2.20;;;;;;;28.66;40.38;158750.84;4906198;29;20448;-81
2023/07/23 08:55:28;;;;;;;2.40;2.00;;;;;;;28.71;40.11;158763.97;4908512;29;20460;-81
2023/07/23 08:58:16;;;;;;;2.27;1.80;;;;;;;28.70;39.83;158762.66;4909051;29;20445;-81
2023/07/23 09:01:03;;;;;;;4.00;2.07;;;;;;;28.55;39.56;158723.28;4905165;29;20463;-83
2023/07/23 09:03:52;;;;;;;3.40;2.00;;;;;;;28.55;40.53;158721.94;4909488;29;20453;-83
2023/07/23 09:06:38;;;;;;;2.47;2.27;;;;;;;28.57;39.81;158727.22;4908511;29;20493;-83
2023/07/23 09:09:27;;;;;;;2.10;1.70;;;;;;;28.56;40.36;158725.91;4905303;29;20840;-83
2023/07/23 09:12:12;;;;;;;2.40;2.07;;;;;;;28.61;40.42;158739.03;4909094;29;20895;-80
2023/07/23 09:15:04;;;;;;;2.10;1.90;;;;;;;28.73;40.28;158770.53;4908450;29;20449;-80
2023/07/23 09:17:49;;;;;;;2.07;1.87;;;;;;;28.70;39.71;158762.66;4905211;29;20464;-81
2023/07/23 09:20:35;;;;;;;2.40;2.20;;;;;;;28.66;40.26;158750.84;4904069;29;20468;-81
2023/07/23 09:23:20;;;;;;;1.90;1.70;;;;;;;28.51;39.73;158712.81;4907916;29;20593;-81
2023/07/23 09:26:09;;;;;;;2.90;2.30;;;;;;;28.41;40.31;158686.53;4900902;29;20460;-82
2023/07/23 09:28:59;;;;;;;2.20;2.00;;;;;;;28.29;40.63;158655.09;4907694;29;20472;-81
2023/07/23 09:31:45;;;;;;;2.40;2.10;;;;;;;28.19;40.79;158630.19;4909755;29;20459;-84
2023/07/23 09:34:31;;;;;;;2.17;1.80;;;;;;;28.19;41.54;158630.19;4910350;29;20496;-84
2023/07/23 09:37:17;;;;;;;2.43;1.70;;;;;;;28.20;40.92;158632.78;4908702;29;20460;-84
2023/07/23 09:40:03;;;;;;;3.33;2.00;;;;;;;28.28;40.49;158652.44;4922577;29;20444;-84
2023/07/23 09:42:49;;;;;;;2.03;1.73;;;;;;;28.20;40.03;158631.47;4919189;29;20468;-84
2023/07/23 09:45:36;;;;;;;2.00;1.80;;;;;;;28.19;40.22;158628.88;4907700;29;20460;-82
2023/07/23 09:48:21;;;;;;;2.57;2.00;;;;;;;28.27;40.33;158651.19;4903673;29;20524;-82
2023/07/23 09:51:10;;;;;;;2.13;1.70;;;;;;;28.34;40.20;158668.19;4907414;29;20601;-82
2023/07/23 09:54:00;;;;;;;2.47;1.97;;;;;;;28.33;39.30;158665.56;4905376;29;20500;-81
2023/07/23 09:56:46;;;;;;;2.10;1.70;;;;;;;28.31;39.49;158660.31;4900312;29;20504;-82
2023/07/23 09:59:34;;;;;;;1.93;1.73;;;;;;;28.42;39.71;158689.19;4907087;29;20967;-81
2023/07/23 10:02:20;;;;;;;2.10;1.90;;;;;;;28.58;38.75;158731.16;4909635;29;20501;-82
2023/07/23 10:05:06;;;;;;;3.10;1.90;;;;;;;28.61;38.71;158739.03;4904228;29;20456;-82
2023/07/23 10:07:52;;;;;;;2.60;1.80;;;;;;;28.61;37.70;158737.69;4908741;29;20456;-82
2023/07/23 10:10:37;;;;;;;2.30;1.77;;;;;;;28.62;38.38;158740.41;4908618;29;20983;-82
2023/07/23 10:13:23;;;;;;;2.23;1.97;;;;;;;28.61;37.86;158739.03;4908430;29;21090;-81
2023/07/23 10:16:18;;;;;;;2.17;1.97;;;;;;;28.68;38.81;158757.41;4907127;29;20444;-81
2023/07/23 10:19:11;;;;;;;2.77;1.57;;;;;;;28.86;38.19;158804.63;4908454;29;21313;-82
2023/07/23 10:21:57;;;;;;;2.10;1.87;;;;;;;28.96;38.18;158830.84;4907684;29;20544;-82
2023/07/23 10:24:42;;;;;;;3.50;1.93;;;;;;;29.11;37.88;158867.59;4908622;29;20441;-82
2023/07/23 10:27:31;;;;;;;2.13;1.93;;;;;;;29.15;37.50;158879.38;4909229;29;20573;-82
2023/07/23 10:30:17;;;;;;;2.10;1.80;;;;;;;29.08;37.34;158859.72;4911019;29;21146;-82
2023/07/23 10:33:32;;;;;;;2.17;1.90;;;;;;;29.09;37.18;158862.34;4910123;29;20508;-82
2023/07/23 10:36:18;;;;;;;2.10;1.87;;;;;;;29.17;37.38;158883.34;4909563;29;20448;-81
2023/07/23 10:39:18;;;;;;;3.77;2.17;;;;;;;29.23;37.42;158899.16;4909866;29;20568;-82
2023/07/23 10:42:03;;;;;;;2.87;2.30;;;;;;;29.19;37.54;158888.59;4908694;29;20436;-81
2023/07/23 10:44:48;;;;;;;2.37;2.17;;;;;;;29.16;37.21;158880.69;4919829;29;20585;-82
2023/07/23 10:47:34;;;;;;;2.40;2.20;;;;;;;29.10;37.39;158865.00;4909058;29;20959;-81
2023/07/23 10:50:21;;;;;;;2.83;2.33;;;;;;;28.89;36.70;158812.50;4907147;29;20622;-82
2023/07/23 10:53:07;;;;;;;2.20;2.00;;;;;;;28.72;37.24;158766.59;4909263;29;20500;-81
2023/07/23 10:55:52;;;;;;;2.10;1.90;;;;;;;28.66;37.86;158752.19;4909897;29;20452;-81
2023/07/23 10:58:40;;;;;;;2.00;1.80;;;;;;;28.76;37.74;158777.09;4907292;29;20463;-81
2023/07/23 11:01:27;;;;;;;2.20;2.00;;;;;;;28.87;37.72;158807.25;4909098;29;20460;-82
2023/07/23 11:04:14;;;;;;;2.40;1.90;;;;;;;29.04;36.56;158849.25;4909624;29;20484;-81
2023/07/23 11:07:01;;;;;;;3.70;2.10;;;;;;;29.04;37.43;158849.25;4908672;29;20800;-81
2023/07/23 11:09:46;;;;;;;2.10;1.90;;;;;;;29.08;37.88;158861.03;4906915;29;20472;-81
2023/07/23 11:12:32;;;;;;;2.17;1.97;;;;;;;29.11;37.49;158867.59;4902811;29;20469;-82
2023/07/23 11:15:18;;;;;;;2.53;2.10;;;;;;;29.12;37.63;158870.22;4904927;29;20444;-81
2023/07/23 11:18:03;;;;;;;3.53;2.20;;;;;;;29.14;37.77;158875.47;4904449;29;20842;-82
2023/07/23 11:20:49;;;;;;;1.73;1.50;;;;;;;29.25;37.47;158904.38;4906354;29;20784;-81
2023/07/23 11:23:36;;;;;;;2.70;2.27;;;;;;;29.28;37.05;158912.28;4919807;29;20453;-82
2023/07/23 11:26:21;;;;;;;3.03;2.33;;;;;;;29.40;36.96;158943.75;4903504;29;20783;-81
2023/07/23 11:29:06;;;;;;;2.80;2.17;;;;;;;29.43;36.76;158951.63;4906847;29;20464;-81
2023/07/23 11:31:52;;;;;;;2.37;2.07;;;;;;;29.48;36.23;158964.72;4907219;29;20453;-81
2023/07/23 11:34:38;;;;;;;4.10;2.60;;;;;;;29.48;35.98;158964.72;4908122;29;20503;-81
2023/07/23 11:37:23;;;;;;;2.87;2.30;;;;;;;29.52;36.48;158976.53;4909923;29;21168;-81
2023/07/23 11:40:17;;;;;;;3.53;2.80;;;;;;;29.55;35.74;158983.09;4907999;29;20930;-81
2023/07/23 11:43:03;;;;;;;3.00;2.70;;;;;;;29.62;35.57;159000.16;4908451;29;20561;-82
2023/07/23 11:45:51;;;;;;;2.90;2.50;;;;;;;29.61;35.87;158997.53;4907480;29;20444;-81
2023/07/23 11:48:37;;;;;;;3.03;2.63;;;;;;;29.68;34.90;159017.19;4907822;29;20456;-82
2023/07/23 11:51:22;;;;;;;4.17;2.17;;;;;;;29.70;34.68;159022.47;4907651;29;20447;-82
2023/07/23 11:54:08;;;;;;;3.37;2.50;;;;;;;29.71;35.15;159025.09;4916043;29;21007;-82
2023/07/23 11:56:55;;;;;;;3.40;2.83;;;;;;;29.79;34.16;159046.13;4897099;29;20469;-82
2023/07/23 11:59:40;;;;;;;2.80;2.60;;;;;;;29.71;34.79;159023.75;4901522;29;20550;-81
2023/07/23 12:02:26;;;;;;;2.50;2.30;;;;;;;29.64;34.83;159005.41;4904469;29;20460;-82
2023/07/23 12:05:13;;;;;;;3.77;2.70;;;;;;;29.52;34.77;158976.53;4901841;29;21062;-82
2023/07/23 12:07:59;;;;;;;3.70;2.50;;;;;;;29.56;35.21;158985.72;4907469;29;20602;-82
2023/07/23 12:10:44;;;;;;;3.07;2.67;;;;;;;29.66;36.30;159010.66;4904906;29;21098;-81
2023/07/23 12:13:31;;;;;;;2.93;2.60;;;;;;;29.74;35.71;159032.97;4907109;29;20558;-82
2023/07/23 12:16:33;;;;;;;3.40;3.07;;;;;;;29.86;34.55;159063.22;4907525;29;20910;-82
2023/07/23 12:19:19;;;;;;;3.00;2.70;;;;;;;29.84;33.58;159059.25;4920734;29;20515;-82
2023/07/23 12:22:05;;;;;;;3.20;2.90;;;;;;;29.76;33.20;159038.19;4905522;29;20456;-82
2023/07/23 12:24:51;;;;;;;3.97;2.77;;;;;;;29.69;33.06;159019.84;4905473;29;20544;-82
2023/07/23 12:27:36;;;;;;;3.93;2.70;;;;;;;29.65;33.08;159009.38;4908107;29;21395;-82
2023/07/23 12:30:22;;;;;;;4.17;2.20;;;;;;;29.57;33.24;158988.38;4908606;29;20885;-82
2023/07/23 12:33:08;;;;;;;2.90;2.30;;;;;;;29.47;33.57;158962.09;4906798;29;20455;-81
2023/07/23 12:35:53;;;;;;;5.00;2.73;;;;;;;29.46;33.42;158960.81;4907214;29;20532;-82
2023/07/23 12:38:38;;;;;;;2.60;2.23;;;;;;;29.44;33.76;158954.25;4905682;29;20597;-82
2023/07/23 12:41:24;;;;;;;3.60;2.87;;;;;;;29.32;34.27;158924.06;4905565;29;22116;-81
2023/07/23 12:44:09;;;;;;;5.30;2.70;;;;;;;29.24;33.76;158901.75;4908069;29;20471;-81
2023/07/23 12:46:56;;;;;;;3.93;2.80;;;;;;;29.06;34.64;158855.81;4905943;29;20483;-81
2023/07/23 12:50:02;;;;;;;3.07;2.40;;;;;;;29.01;35.09;158841.38;4918228;29;20499;-82
2023/07/23 12:52:47;;;;;;;2.83;2.60;;;;;;;28.92;34.73;158820.38;4907787;29;20488;-81